KOBE

Okeechobee County Airport

Okeechobee, Florida, USA
METAR KOBE 231455Z AUTO 12005KT 10SM SCT026 SCT035 27/21 A3011 RMK AO2
Observed Flight Rules
May-23 @ 14:55 UTC (12 minutes ago) Visual Flight Rules
Wind Visibility Clouds
120° at 5 knots 10 miles
  • Scattered at 2,600' AGL
  • Scattered at 3,500' AGL
Temperatures Readings
Current 27°C / 81°F
Dewpoint 21°C / 70°F
Humidity 70%
Altimeter 30.11" Hg
Pressure 1020 hPa
Elevation 11
METAR KOBE 231455Z AUTO 12005KT 10SM SCT026 SCT035 27/21 A3011 RMK AO2
Observed Flight Rules
May-23 @ 14:55 UTC
(12 minutes ago)
VFR
Wind Visibility
120° at 5 knots 10 miles
Clouds
  • Scattered at 2,600' AGL
  • Scattered at 3,500' AGL
Temperature Dewpoint
27°C / 81°F 21°C / 70°F
Humidity Altimeter Pressure
70% 30.11" Hg 1020 hPa